This is the latest recevied weather packets stored in our database for station/object AA5AW. If no packets are shown the sender has not sent any weather packets the latest 10 day(s).
| Time | Temp. | Humidity | Pressure | Rain* | Wind** | Luminosity | Snow |
|---|---|---|---|---|---|---|---|
| 1778055354 | 23.33° C | 93% | 1010 hPa | 0 mm | - | 0 W/m² | - |
| 1778049950 | 23.33° C | 92% | 1010.3 hPa | 0 mm | - | 0 W/m² | - |
| 1778049034 | 23.33° C | 92% | 1010.3 hPa | 0 mm | - | 0 W/m² | - |
| 1778046315 | 23.33° C | 92% | 1010.2 hPa | 0 mm | - | 0 W/m² | - |
| 1778042753 | 23.89° C | 91% | 1010.2 hPa | 0 mm | - | 0 W/m² | - |
| 1778041836 | 23.89° C | 91% | 1010.2 hPa | 0 mm | - | 0 W/m² | - |
| 1778040938 | 23.89° C | 91% | 1010.2 hPa | 0 mm | - | 0 W/m² | - |
| 1778037318 | 23.89° C | 90% | 1009.4 hPa | 0 mm | - | 0 W/m² | - |
| 1778031904 | 25° C | 87% | 1008.3 hPa | 0 mm | - | 0 W/m² | - |
| 1778031052 | 25° C | 87% | 1008.1 hPa | 0 mm | - | 0 W/m² | - |
| 1778029244 | 25.56° C | 85% | 1007.6 hPa | 0 mm | - | 0 W/m² | - |
| 1778027442 | 26.11° C | 83% | 1007.1 hPa | 0 mm | - | 30 W/m² | - |
| 1778015742 | 28.33° C | 74% | 1007.6 hPa | 0 mm | - | 294 W/m² | - |
| 1778004060 | 26.67° C | 78% | 1009.6 hPa | 0 mm | - | 220 W/m² | - |
| 1778003116 | 26.67° C | 78% | 1009.6 hPa | 0 mm | - | 489 W/m² | - |
| 1778002251 | 25.56° C | 84% | 1009.7 hPa | 0 mm | - | 387 W/m² | - |
| 1777998640 | 23.89° C | 86% | 1010.2 hPa | 0 mm | - | 158 W/m² | - |
| 1777989629 | 21.67° C | 90% | 1009.9 hPa | 0 mm | - | 54 W/m² | - |
| 1777988735 | 21.67° C | 91% | 1009.8 hPa | 0 mm | - | 98 W/m² | - |
| 1777986910 | 21.11° C | 92% | 1010.1 hPa | 0 mm | - | 23 W/m² | - |
| 1777985144 | 20.56° C | 92% | 1009.9 hPa | 0 mm | - | 42 W/m² | - |
| 1777981559 | 20° C | 93% | 1009.6 hPa | 0 mm | - | 5 W/m² | - |
| 1777974323 | 18.89° C | 93% | 1009.2 hPa | 0 mm | - | 0 W/m² | - |
| 1777972557 | 18.89° C | 93% | 1009.8 hPa | 0 mm | - | 0 W/m² | - |
| 1777971651 | 18.89° C | 92% | 1009.8 hPa | 0 mm | - | 0 W/m² | - |
* Rain latest hour (hover to see other rain measurements)
** Current wind speed in m/s (hover to see current wind gust speed)